sensor_id;sensor_type;location;lat;lon;timestamp;temperature;humidity
14099;DHT22;7126;48.458;7.930;2022-12-24T00:02:21;12.30;99.90
14099;DHT22;7126;48.458;7.930;2022-12-24T00:04:47;12.30;99.90
14099;DHT22;7126;48.458;7.930;2022-12-24T00:07:12;12.30;99.90
14099;DHT22;7126;48.458;7.930;2022-12-24T00:09:38;12.30;99.90
14099;DHT22;7126;48.458;7.930;2022-12-24T00:12:04;12.30;99.90
14099;DHT22;7126;48.458;7.930;2022-12-24T00:14:30;12.30;99.90
14099;DHT22;7126;48.458;7.930;2022-12-24T00:16:55;12.30;99.90
14099;DHT22;7126;48.458;7.930;2022-12-24T00:19:21;12.30;99.90
14099;DHT22;7126;48.458;7.930;2022-12-24T00:21:46;12.50;99.90
14099;DHT22;7126;48.458;7.930;2022-12-24T00:24:12;12.50;99.90
14099;DHT22;7126;48.458;7.930;2022-12-24T00:26:37;12.60;99.90
14099;DHT22;7126;48.458;7.930;2022-12-24T00:29:03;12.70;99.90
14099;DHT22;7126;48.458;7.930;2022-12-24T00:31:28;12.70;99.90
14099;DHT22;7126;48.458;7.930;2022-12-24T00:33:54;12.60;99.90
14099;DHT22;7126;48.458;7.930;2022-12-24T00:36:20;12.60;99.90
14099;DHT22;7126;48.458;7.930;2022-12-24T00:38:46;12.60;99.90
14099;DHT22;7126;48.458;7.930;2022-12-24T00:41:13;12.50;99.90
14099;DHT22;7126;48.458;7.930;2022-12-24T00:43:54;12.50;99.90
14099;DHT22;7126;48.458;7.930;2022-12-24T00:46:20;12.50;99.90
14099;DHT22;7126;48.458;7.930;2022-12-24T00:48:47;12.50;99.90
14099;DHT22;7126;48.458;7.930;2022-12-24T00:51:12;12.50;99.90
14099;DHT22;7126;48.458;7.930;2022-12-24T00:53:38;12.50;99.90
14099;DHT22;7126;48.458;7.930;2022-12-24T00:56:04;12.50;99.90
14099;DHT22;7126;48.458;7.930;2022-12-24T00:58:30;12.50;99.90
14099;DHT22;7126;48.458;7.930;2022-12-24T01:00:55;12.40;99.90
14099;DHT22;7126;48.458;7.930;2022-12-24T01:03:21;12.40;99.90
14099;DHT22;7126;48.458;7.930;2022-12-24T01:05:46;12.30;99.90
14099;DHT22;7126;48.458;7.930;2022-12-24T01:08:13;12.30;99.90
14099;DHT22;7126;48.458;7.930;2022-12-24T01:10:38;12.30;99.90
14099;DHT22;7126;48.458;7.930;2022-12-24T01:13:04;12.30;99.90
14099;DHT22;7126;48.458;7.930;2022-12-24T01:15:29;12.30;99.90
14099;DHT22;7126;48.458;7.930;2022-12-24T01:17:55;12.30;99.90
14099;DHT22;7126;48.458;7.930;2022-12-24T01:20:21;12.30;99.90
14099;DHT22;7126;48.458;7.930;2022-12-24T01:22:46;12.20;99.90
14099;DHT22;7126;48.458;7.930;2022-12-24T01:25:13;12.20;99.90
14099;DHT22;7126;48.458;7.930;2022-12-24T01:27:39;12.10;99.90
14099;DHT22;7126;48.458;7.930;2022-12-24T01:30:06;12.10;99.90
14099;DHT22;7126;48.458;7.930;2022-12-24T01:32:32;12.10;99.90
14099;DHT22;7126;48.458;7.930;2022-12-24T01:34:57;12.10;99.90
14099;DHT22;7126;48.458;7.930;2022-12-24T01:37:24;12.10;99.90
14099;DHT22;7126;48.458;7.930;2022-12-24T01:39:49;12.10;99.90
14099;DHT22;7126;48.458;7.930;2022-12-24T01:42:20;12.20;99.90
14099;DHT22;7126;48.458;7.930;2022-12-24T01:48:02;12.20;99.90
14099;DHT22;7126;48.458;7.930;2022-12-24T01:50:27;12.20;99.90
14099;DHT22;7126;48.458;7.930;2022-12-24T01:52:53;12.20;99.90
14099;DHT22;7126;48.458;7.930;2022-12-24T01:55:19;12.20;99.90
14099;DHT22;7126;48.458;7.930;2022-12-24T01:57:50;12.20;99.90
14099;DHT22;7126;48.458;7.930;2022-12-24T02:00:17;12.20;99.90
14099;DHT22;7126;48.458;7.930;2022-12-24T02:02:45;12.20;99.90
14099;DHT22;7126;48.458;7.930;2022-12-24T02:05:18;12.20;99.90
14099;DHT22;7126;48.458;7.930;2022-12-24T02:07:47;12.30;99.90
14099;DHT22;7126;48.458;7.930;2022-12-24T02:10:14;12.30;99.90
14099;DHT22;7126;48.458;7.930;2022-12-24T02:12:41;12.30;99.90
14099;DHT22;7126;48.458;7.930;2022-12-24T02:15:10;12.40;99.90
14099;DHT22;7126;48.458;7.930;2022-12-24T02:17:39;12.40;99.90
14099;DHT22;7126;48.458;7.930;2022-12-24T02:20:25;12.40;99.90
14099;DHT22;7126;48.458;7.930;2022-12-24T02:26:17;12.50;99.90
14099;DHT22;7126;48.458;7.930;2022-12-24T02:31:31;12.60;99.90
14099;DHT22;7126;48.458;7.930;2022-12-24T02:34:16;12.60;99.90
14099;DHT22;7126;48.458;7.930;2022-12-24T02:36:48;12.60;99.90
14099;DHT22;7126;48.458;7.930;2022-12-24T02:39:28;12.60;99.90
14099;DHT22;7126;48.458;7.930;2022-12-24T02:41:57;12.60;99.90
14099;DHT22;7126;48.458;7.930;2022-12-24T02:44:43;12.60;99.90
14099;DHT22;7126;48.458;7.930;2022-12-24T02:47:11;12.60;99.90
14099;DHT22;7126;48.458;7.930;2022-12-24T02:49:38;12.70;99.90
14099;DHT22;7126;48.458;7.930;2022-12-24T02:52:27;12.70;99.90
14099;DHT22;7126;48.458;7.930;2022-12-24T02:54:52;12.60;99.90
14099;DHT22;7126;48.458;7.930;2022-12-24T03:00:07;12.60;99.90
14099;DHT22;7126;48.458;7.930;2022-12-24T03:02:55;12.60;99.90
14099;DHT22;7126;48.458;7.930;2022-12-24T03:08:33;12.50;99.90
14099;DHT22;7126;48.458;7.930;2022-12-24T03:11:08;12.30;99.90
14099;DHT22;7126;48.458;7.930;2022-12-24T03:13:35;12.30;99.90
14099;DHT22;7126;48.458;7.930;2022-12-24T03:16:03;12.20;99.90
14099;DHT22;7126;48.458;7.930;2022-12-24T03:18:30;12.10;99.90
14099;DHT22;7126;48.458;7.930;2022-12-24T03:21:08;12.10;99.90
14099;DHT22;7126;48.458;7.930;2022-12-24T03:23:54;12.10;99.90
14099;DHT22;7126;48.458;7.930;2022-12-24T03:26:20;12.00;99.90
14099;DHT22;7126;48.458;7.930;2022-12-24T03:28:46;12.00;99.90
14099;DHT22;7126;48.458;7.930;2022-12-24T03:31:13;12.00;99.90
14099;DHT22;7126;48.458;7.930;2022-12-24T03:33:39;12.00;99.90
14099;DHT22;7126;48.458;7.930;2022-12-24T03:36:05;12.00;99.90
14099;DHT22;7126;48.458;7.930;2022-12-24T03:38:32;11.90;99.90
14099;DHT22;7126;48.458;7.930;2022-12-24T03:40:58;11.90;99.90
14099;DHT22;7126;48.458;7.930;2022-12-24T03:43:23;11.90;99.90
14099;DHT22;7126;48.458;7.930;2022-12-24T03:45:49;11.90;99.90
14099;DHT22;7126;48.458;7.930;2022-12-24T03:48:15;11.90;99.90
14099;DHT22;7126;48.458;7.930;2022-12-24T03:50:40;11.90;99.90
14099;DHT22;7126;48.458;7.930;2022-12-24T03:53:06;11.80;99.90
14099;DHT22;7126;48.458;7.930;2022-12-24T03:55:31;11.80;99.90
14099;DHT22;7126;48.458;7.930;2022-12-24T03:57:57;11.80;99.90
14099;DHT22;7126;48.458;7.930;2022-12-24T04:00:22;11.80;99.90
14099;DHT22;7126;48.458;7.930;2022-12-24T04:02:48;11.80;99.90
14099;DHT22;7126;48.458;7.930;2022-12-24T04:05:16;11.80;99.90
14099;DHT22;7126;48.458;7.930;2022-12-24T04:07:42;11.80;99.90
14099;DHT22;7126;48.458;7.930;2022-12-24T04:10:08;11.80;99.90
14099;DHT22;7126;48.458;7.930;2022-12-24T04:12:34;11.80;99.90
14099;DHT22;7126;48.458;7.930;2022-12-24T04:15:00;11.80;99.90
14099;DHT22;7126;48.458;7.930;2022-12-24T04:17:25;11.80;99.90
14099;DHT22;7126;48.458;7.930;2022-12-24T04:19:51;11.80;99.90
14099;DHT22;7126;48.458;7.930;2022-12-24T04:22:17;11.80;99.90
14099;DHT22;7126;48.458;7.930;2022-12-24T04:24:42;11.80;99.90
14099;DHT22;7126;48.458;7.930;2022-12-24T04:27:08;11.80;99.90
14099;DHT22;7126;48.458;7.930;2022-12-24T04:29:33;11.80;99.90
14099;DHT22;7126;48.458;7.930;2022-12-24T04:31:59;11.80;99.90
14099;DHT22;7126;48.458;7.930;2022-12-24T04:34:25;11.80;99.90
14099;DHT22;7126;48.458;7.930;2022-12-24T04:36:50;11.80;99.90
14099;DHT22;7126;48.458;7.930;2022-12-24T04:39:16;11.80;99.90
14099;DHT22;7126;48.458;7.930;2022-12-24T04:41:41;11.70;99.90
14099;DHT22;7126;48.458;7.930;2022-12-24T04:44:07;11.70;99.90
14099;DHT22;7126;48.458;7.930;2022-12-24T04:46:33;11.60;99.90
14099;DHT22;7126;48.458;7.930;2022-12-24T04:48:59;11.60;99.90
14099;DHT22;7126;48.458;7.930;2022-12-24T04:51:26;11.60;99.90
14099;DHT22;7126;48.458;7.930;2022-12-24T04:53:52;11.70;99.90
14099;DHT22;7126;48.458;7.930;2022-12-24T04:56:21;11.70;99.90
14099;DHT22;7126;48.458;7.930;2022-12-24T04:58:47;11.70;99.90
14099;DHT22;7126;48.458;7.930;2022-12-24T05:01:16;11.70;99.90
14099;DHT22;7126;48.458;7.930;2022-12-24T05:03:42;11.70;99.90
14099;DHT22;7126;48.458;7.930;2022-12-24T05:06:11;11.60;99.90
14099;DHT22;7126;48.458;7.930;2022-12-24T05:08:37;11.60;99.90
14099;DHT22;7126;48.458;7.930;2022-12-24T05:11:03;11.60;99.90
14099;DHT22;7126;48.458;7.930;2022-12-24T05:13:30;11.60;99.90
14099;DHT22;7126;48.458;7.930;2022-12-24T05:15:55;11.60;99.90
14099;DHT22;7126;48.458;7.930;2022-12-24T05:18:21;11.60;99.90
14099;DHT22;7126;48.458;7.930;2022-12-24T05:20:47;11.60;99.90
14099;DHT22;7126;48.458;7.930;2022-12-24T05:23:18;11.60;99.90
14099;DHT22;7126;48.458;7.930;2022-12-24T05:26:02;11.60;99.90
14099;DHT22;7126;48.458;7.930;2022-12-24T05:28:50;11.60;99.90
14099;DHT22;7126;48.458;7.930;2022-12-24T05:31:17;11.50;99.90
14099;DHT22;7126;48.458;7.930;2022-12-24T05:33:43;11.50;99.90
14099;DHT22;7126;48.458;7.930;2022-12-24T05:36:09;11.60;99.90
14099;DHT22;7126;48.458;7.930;2022-12-24T05:38:35;11.60;99.90
14099;DHT22;7126;48.458;7.930;2022-12-24T05:41:00;11.60;99.90
14099;DHT22;7126;48.458;7.930;2022-12-24T05:43:26;11.70;99.90
14099;DHT22;7126;48.458;7.930;2022-12-24T05:46:00;11.70;99.90
14099;DHT22;7126;48.458;7.930;2022-12-24T05:48:26;11.70;99.90
14099;DHT22;7126;48.458;7.930;2022-12-24T05:50:52;11.60;99.90
14099;DHT22;7126;48.458;7.930;2022-12-24T05:53:18;11.60;99.90
14099;DHT22;7126;48.458;7.930;2022-12-24T05:55:43;11.50;99.90
14099;DHT22;7126;48.458;7.930;2022-12-24T05:58:09;11.50;99.90
14099;DHT22;7126;48.458;7.930;2022-12-24T06:00:34;11.50;99.90
14099;DHT22;7126;48.458;7.930;2022-12-24T06:03:00;11.50;99.90
14099;DHT22;7126;48.458;7.930;2022-12-24T06:05:25;11.50;99.90
14099;DHT22;7126;48.458;7.930;2022-12-24T06:07:51;11.50;99.90
14099;DHT22;7126;48.458;7.930;2022-12-24T06:10:17;11.50;99.90
14099;DHT22;7126;48.458;7.930;2022-12-24T06:12:42;11.50;99.90
14099;DHT22;7126;48.458;7.930;2022-12-24T06:15:08;11.60;99.90
14099;DHT22;7126;48.458;7.930;2022-12-24T06:17:34;11.60;99.90
14099;DHT22;7126;48.458;7.930;2022-12-24T06:19:59;11.60;99.90
14099;DHT22;7126;48.458;7.930;2022-12-24T06:22:25;11.60;99.90
14099;DHT22;7126;48.458;7.930;2022-12-24T06:24:50;11.60;99.90
14099;DHT22;7126;48.458;7.930;2022-12-24T06:27:22;11.50;99.90
14099;DHT22;7126;48.458;7.930;2022-12-24T06:29:48;11.50;99.90
14099;DHT22;7126;48.458;7.930;2022-12-24T06:32:14;11.50;99.90
14099;DHT22;7126;48.458;7.930;2022-12-24T06:34:39;11.50;99.90
14099;DHT22;7126;48.458;7.930;2022-12-24T06:37:05;11.40;99.90
14099;DHT22;7126;48.458;7.930;2022-12-24T06:39:30;11.40;99.90
14099;DHT22;7126;48.458;7.930;2022-12-24T06:41:56;11.40;99.90
14099;DHT22;7126;48.458;7.930;2022-12-24T06:44:22;11.40;99.90
14099;DHT22;7126;48.458;7.930;2022-12-24T06:46:47;11.40;99.90
14099;DHT22;7126;48.458;7.930;2022-12-24T06:49:13;11.40;99.90
14099;DHT22;7126;48.458;7.930;2022-12-24T06:51:38;11.30;99.90
14099;DHT22;7126;48.458;7.930;2022-12-24T06:54:04;11.30;99.90
14099;DHT22;7126;48.458;7.930;2022-12-24T06:56:30;11.30;99.90
14099;DHT22;7126;48.458;7.930;2022-12-24T06:58:55;11.40;99.90
14099;DHT22;7126;48.458;7.930;2022-12-24T07:01:21;11.40;99.90
14099;DHT22;7126;48.458;7.930;2022-12-24T07:03:49;11.40;99.90
14099;DHT22;7126;48.458;7.930;2022-12-24T07:06:25;11.50;99.90
14099;DHT22;7126;48.458;7.930;2022-12-24T07:08:52;11.50;99.90
14099;DHT22;7126;48.458;7.930;2022-12-24T07:11:18;11.60;99.90
14099;DHT22;7126;48.458;7.930;2022-12-24T07:13:45;11.60;99.90
14099;DHT22;7126;48.458;7.930;2022-12-24T07:16:11;11.60;99.90
14099;DHT22;7126;48.458;7.930;2022-12-24T07:18:37;11.60;99.90
14099;DHT22;7126;48.458;7.930;2022-12-24T07:21:05;11.70;99.90
14099;DHT22;7126;48.458;7.930;2022-12-24T07:23:32;11.70;99.90
14099;DHT22;7126;48.458;7.930;2022-12-24T07:26:02;11.70;99.90
14099;DHT22;7126;48.458;7.930;2022-12-24T07:28:28;11.60;99.90
14099;DHT22;7126;48.458;7.930;2022-12-24T07:30:58;11.60;99.90
14099;DHT22;7126;48.458;7.930;2022-12-24T07:33:24;11.60;99.90
14099;DHT22;7126;48.458;7.930;2022-12-24T07:36:04;11.50;99.90
14099;DHT22;7126;48.458;7.930;2022-12-24T07:38:30;11.40;99.90
14099;DHT22;7126;48.458;7.930;2022-12-24T07:40:56;11.40;99.90
14099;DHT22;7126;48.458;7.930;2022-12-24T07:43:22;11.40;99.90
14099;DHT22;7126;48.458;7.930;2022-12-24T07:45:48;11.40;99.90
14099;DHT22;7126;48.458;7.930;2022-12-24T07:48:14;11.30;99.90
14099;DHT22;7126;48.458;7.930;2022-12-24T07:50:40;11.30;99.90
14099;DHT22;7126;48.458;7.930;2022-12-24T07:53:05;11.30;99.90
14099;DHT22;7126;48.458;7.930;2022-12-24T07:55:31;11.30;99.90
14099;DHT22;7126;48.458;7.930;2022-12-24T07:57:56;11.40;99.90
14099;DHT22;7126;48.458;7.930;2022-12-24T08:00:22;11.40;99.90
14099;DHT22;7126;48.458;7.930;2022-12-24T08:02:48;11.50;99.90
14099;DHT22;7126;48.458;7.930;2022-12-24T08:05:13;11.50;99.90
14099;DHT22;7126;48.458;7.930;2022-12-24T08:07:39;11.60;99.90
14099;DHT22;7126;48.458;7.930;2022-12-24T08:10:05;11.60;99.90
14099;DHT22;7126;48.458;7.930;2022-12-24T08:12:30;11.60;99.90
14099;DHT22;7126;48.458;7.930;2022-12-24T08:14:56;11.50;99.90
14099;DHT22;7126;48.458;7.930;2022-12-24T08:17:21;11.60;99.90
14099;DHT22;7126;48.458;7.930;2022-12-24T08:19:47;11.60;99.90
14099;DHT22;7126;48.458;7.930;2022-12-24T08:22:14;11.60;99.90
14099;DHT22;7126;48.458;7.930;2022-12-24T08:24:39;11.60;99.90
14099;DHT22;7126;48.458;7.930;2022-12-24T08:27:05;11.60;99.90
14099;DHT22;7126;48.458;7.930;2022-12-24T08:29:30;11.60;99.90
14099;DHT22;7126;48.458;7.930;2022-12-24T08:31:56;11.60;99.90
14099;DHT22;7126;48.458;7.930;2022-12-24T08:34:21;11.60;99.90
14099;DHT22;7126;48.458;7.930;2022-12-24T08:36:47;11.60;99.90
14099;DHT22;7126;48.458;7.930;2022-12-24T08:39:12;11.70;99.90
14099;DHT22;7126;48.458;7.930;2022-12-24T08:41:38;11.70;99.90
14099;DHT22;7126;48.458;7.930;2022-12-24T08:44:04;11.70;99.90
14099;DHT22;7126;48.458;7.930;2022-12-24T08:46:29;11.70;99.90
14099;DHT22;7126;48.458;7.930;2022-12-24T08:48:55;11.80;99.90
14099;DHT22;7126;48.458;7.930;2022-12-24T08:51:20;11.80;99.90
14099;DHT22;7126;48.458;7.930;2022-12-24T08:53:46;11.80;99.90
14099;DHT22;7126;48.458;7.930;2022-12-24T08:56:12;11.90;99.90
14099;DHT22;7126;48.458;7.930;2022-12-24T08:58:38;11.90;99.90
14099;DHT22;7126;48.458;7.930;2022-12-24T09:01:14;11.90;99.90
14099;DHT22;7126;48.458;7.930;2022-12-24T09:03:40;12.00;99.90
14099;DHT22;7126;48.458;7.930;2022-12-24T09:06:07;12.00;99.90
14099;DHT22;7126;48.458;7.930;2022-12-24T09:08:33;12.00;99.90
14099;DHT22;7126;48.458;7.930;2022-12-24T09:11:14;12.00;99.90
14099;DHT22;7126;48.458;7.930;2022-12-24T09:13:40;12.00;99.90
14099;DHT22;7126;48.458;7.930;2022-12-24T09:16:07;12.00;99.90
14099;DHT22;7126;48.458;7.930;2022-12-24T09:18:33;12.00;99.90
14099;DHT22;7126;48.458;7.930;2022-12-24T09:21:07;12.00;99.90
14099;DHT22;7126;48.458;7.930;2022-12-24T09:23:37;12.00;99.90
14099;DHT22;7126;48.458;7.930;2022-12-24T09:26:25;12.00;99.90
14099;DHT22;7126;48.458;7.930;2022-12-24T09:28:51;12.10;99.90
14099;DHT22;7126;48.458;7.930;2022-12-24T09:31:17;12.10;99.90
14099;DHT22;7126;48.458;7.930;2022-12-24T09:33:44;12.20;99.90
14099;DHT22;7126;48.458;7.930;2022-12-24T09:36:10;12.20;99.90
14099;DHT22;7126;48.458;7.930;2022-12-24T09:38:37;12.10;99.90
14099;DHT22;7126;48.458;7.930;2022-12-24T09:41:11;12.10;99.90
14099;DHT22;7126;48.458;7.930;2022-12-24T09:43:38;12.10;99.90
14099;DHT22;7126;48.458;7.930;2022-12-24T09:46:24;12.10;99.90
14099;DHT22;7126;48.458;7.930;2022-12-24T09:48:56;12.20;99.90
14099;DHT22;7126;48.458;7.930;2022-12-24T09:51:28;12.20;99.90
14099;DHT22;7126;48.458;7.930;2022-12-24T09:54:03;12.30;99.90
14099;DHT22;7126;48.458;7.930;2022-12-24T09:56:33;12.30;99.90
14099;DHT22;7126;48.458;7.930;2022-12-24T09:59:03;12.40;99.90
14099;DHT22;7126;48.458;7.930;2022-12-24T10:01:30;12.40;99.90
14099;DHT22;7126;48.458;7.930;2022-12-24T10:04:00;12.50;99.90
14099;DHT22;7126;48.458;7.930;2022-12-24T10:06:32;12.70;99.90
14099;DHT22;7126;48.458;7.930;2022-12-24T10:17:21;12.70;99.90
14099;DHT22;7126;48.458;7.930;2022-12-24T10:22:39;12.70;99.90
14099;DHT22;7126;48.458;7.930;2022-12-24T10:27:59;12.70;99.90
14099;DHT22;7126;48.458;7.930;2022-12-24T10:30:25;12.70;99.90
14099;DHT22;7126;48.458;7.930;2022-12-24T10:32:52;12.70;99.90
14099;DHT22;7126;48.458;7.930;2022-12-24T10:37:48;12.80;99.90
14099;DHT22;7126;48.458;7.930;2022-12-24T10:42:53;12.90;99.90
14099;DHT22;7126;48.458;7.930;2022-12-24T10:45:23;12.90;99.90
14099;DHT22;7126;48.458;7.930;2022-12-24T10:47:54;12.90;99.90
14099;DHT22;7126;48.458;7.930;2022-12-24T10:50:29;13.00;99.90
14099;DHT22;7126;48.458;7.930;2022-12-24T10:53:03;13.00;99.90
14099;DHT22;7126;48.458;7.930;2022-12-24T10:55:31;13.00;99.90
14099;DHT22;7126;48.458;7.930;2022-12-24T10:58:02;13.00;99.90
14099;DHT22;7126;48.458;7.930;2022-12-24T11:00:29;13.10;99.90
14099;DHT22;7126;48.458;7.930;2022-12-24T11:05:37;13.10;99.90
14099;DHT22;7126;48.458;7.930;2022-12-24T11:08:09;13.10;99.90
14099;DHT22;7126;48.458;7.930;2022-12-24T11:10:44;13.10;99.90
14099;DHT22;7126;48.458;7.930;2022-12-24T11:13:28;13.10;99.90
14099;DHT22;7126;48.458;7.930;2022-12-24T11:19:03;13.20;99.90
14099;DHT22;7126;48.458;7.930;2022-12-24T11:21:32;13.20;99.90
14099;DHT22;7126;48.458;7.930;2022-12-24T11:24:06;13.20;99.90
14099;DHT22;7126;48.458;7.930;2022-12-24T11:26:32;13.30;99.90
14099;DHT22;7126;48.458;7.930;2022-12-24T11:31:40;13.30;99.90
14099;DHT22;7126;48.458;7.930;2022-12-24T11:34:26;13.30;99.90
14099;DHT22;7126;48.458;7.930;2022-12-24T11:36:53;13.30;99.90
14099;DHT22;7126;48.458;7.930;2022-12-24T11:39:22;13.40;99.90
14099;DHT22;7126;48.458;7.930;2022-12-24T11:41:48;13.40;99.90
14099;DHT22;7126;48.458;7.930;2022-12-24T11:44:27;13.50;99.90
14099;DHT22;7126;48.458;7.930;2022-12-24T11:46:54;13.50;99.90
14099;DHT22;7126;48.458;7.930;2022-12-24T11:49:30;13.50;99.90
14099;DHT22;7126;48.458;7.930;2022-12-24T11:52:15;13.50;99.90
14099;DHT22;7126;48.458;7.930;2022-12-24T11:55:15;13.60;99.90
14099;DHT22;7126;48.458;7.930;2022-12-24T11:58:03;13.70;99.90
14099;DHT22;7126;48.458;7.930;2022-12-24T12:00:30;13.70;99.90
14099;DHT22;7126;48.458;7.930;2022-12-24T12:02:58;13.80;99.90
14099;DHT22;7126;48.458;7.930;2022-12-24T12:05:31;13.80;99.90
14099;DHT22;7126;48.458;7.930;2022-12-24T12:08:15;13.70;99.90
14099;DHT22;7126;48.458;7.930;2022-12-24T12:10:42;13.70;99.90
14099;DHT22;7126;48.458;7.930;2022-12-24T12:13:14;13.70;99.90
14099;DHT22;7126;48.458;7.930;2022-12-24T12:18:58;13.60;99.90
14099;DHT22;7126;48.458;7.930;2022-12-24T12:21:34;13.60;99.90
14099;DHT22;7126;48.458;7.930;2022-12-24T12:24:06;13.60;99.90
14099;DHT22;7126;48.458;7.930;2022-12-24T12:26:37;13.50;99.90
14099;DHT22;7126;48.458;7.930;2022-12-24T12:29:31;13.60;99.90
14099;DHT22;7126;48.458;7.930;2022-12-24T12:32:03;13.60;99.90
14099;DHT22;7126;48.458;7.930;2022-12-24T12:34:40;13.60;99.90
14099;DHT22;7126;48.458;7.930;2022-12-24T12:37:37;13.60;99.90
14099;DHT22;7126;48.458;7.930;2022-12-24T12:40:15;13.50;99.90
14099;DHT22;7126;48.458;7.930;2022-12-24T12:42:52;13.60;99.90
14099;DHT22;7126;48.458;7.930;2022-12-24T12:48:09;13.60;99.90
14099;DHT22;7126;48.458;7.930;2022-12-24T12:51:21;13.60;99.90
14099;DHT22;7126;48.458;7.930;2022-12-24T12:56:51;13.60;99.90
14099;DHT22;7126;48.458;7.930;2022-12-24T12:59:37;13.60;99.90
14099;DHT22;7126;48.458;7.930;2022-12-24T13:02:17;13.60;99.90
14099;DHT22;7126;48.458;7.930;2022-12-24T13:10:37;13.60;99.90
14099;DHT22;7126;48.458;7.930;2022-12-24T13:13:25;13.60;99.90
14099;DHT22;7126;48.458;7.930;2022-12-24T13:21:21;13.60;99.90
14099;DHT22;7126;48.458;7.930;2022-12-24T13:23:48;13.60;99.90
14099;DHT22;7126;48.458;7.930;2022-12-24T13:26:14;13.60;99.90
14099;DHT22;7126;48.458;7.930;2022-12-24T13:28:41;13.60;99.90
14099;DHT22;7126;48.458;7.930;2022-12-24T13:36:17;13.60;99.90
14099;DHT22;7126;48.458;7.930;2022-12-24T13:46:52;13.60;99.90
14099;DHT22;7126;48.458;7.930;2022-12-24T13:49:32;13.60;99.90
14099;DHT22;7126;48.458;7.930;2022-12-24T13:54:41;13.60;99.90
14099;DHT22;7126;48.458;7.930;2022-12-24T14:00:21;13.60;99.90
14099;DHT22;7126;48.458;7.930;2022-12-24T14:03:03;13.50;99.90
14099;DHT22;7126;48.458;7.930;2022-12-24T14:06:05;13.40;99.90
14099;DHT22;7126;48.458;7.930;2022-12-24T14:08:44;13.40;99.90
14099;DHT22;7126;48.458;7.930;2022-12-24T14:11:14;13.30;99.90
14099;DHT22;7126;48.458;7.930;2022-12-24T14:16:10;13.20;99.90
14099;DHT22;7126;48.458;7.930;2022-12-24T14:18:38;13.20;99.90
14099;DHT22;7126;48.458;7.930;2022-12-24T14:21:06;13.20;99.90
14099;DHT22;7126;48.458;7.930;2022-12-24T14:23:39;13.10;99.90
14099;DHT22;7126;48.458;7.930;2022-12-24T14:26:12;13.00;99.90
14099;DHT22;7126;48.458;7.930;2022-12-24T14:28:42;13.00;99.90
14099;DHT22;7126;48.458;7.930;2022-12-24T14:31:15;12.90;99.90
14099;DHT22;7126;48.458;7.930;2022-12-24T14:33:41;12.90;99.90
14099;DHT22;7126;48.458;7.930;2022-12-24T14:36:07;12.90;99.90
14099;DHT22;7126;48.458;7.930;2022-12-24T14:38:33;12.90;99.90
14099;DHT22;7126;48.458;7.930;2022-12-24T14:44:07;12.80;99.90
14099;DHT22;7126;48.458;7.930;2022-12-24T14:46:49;12.80;99.90
14099;DHT22;7126;48.458;7.930;2022-12-24T14:49:34;12.70;99.90
14099;DHT22;7126;48.458;7.930;2022-12-24T14:52:10;12.70;99.90
14099;DHT22;7126;48.458;7.930;2022-12-24T14:54:41;12.70;99.90
14099;DHT22;7126;48.458;7.930;2022-12-24T14:59:48;12.60;99.90
14099;DHT22;7126;48.458;7.930;2022-12-24T15:02:24;12.60;99.90
14099;DHT22;7126;48.458;7.930;2022-12-24T15:07:33;12.50;99.90
14099;DHT22;7126;48.458;7.930;2022-12-24T15:10:02;12.50;99.90
14099;DHT22;7126;48.458;7.930;2022-12-24T15:12:30;12.50;99.90
14099;DHT22;7126;48.458;7.930;2022-12-24T15:14:56;12.50;99.90
14099;DHT22;7126;48.458;7.930;2022-12-24T15:17:22;12.50;99.90
14099;DHT22;7126;48.458;7.930;2022-12-24T15:19:50;12.40;99.90
14099;DHT22;7126;48.458;7.930;2022-12-24T15:22:24;12.40;99.90
14099;DHT22;7126;48.458;7.930;2022-12-24T15:24:50;12.40;99.90
14099;DHT22;7126;48.458;7.930;2022-12-24T15:27:21;12.30;99.90
14099;DHT22;7126;48.458;7.930;2022-12-24T15:29:51;12.30;99.90
14099;DHT22;7126;48.458;7.930;2022-12-24T15:32:19;12.30;99.90
14099;DHT22;7126;48.458;7.930;2022-12-24T15:34:53;12.30;99.90
14099;DHT22;7126;48.458;7.930;2022-12-24T15:37:22;12.30;99.90
14099;DHT22;7126;48.458;7.930;2022-12-24T15:40:21;12.20;99.90
14099;DHT22;7126;48.458;7.930;2022-12-24T15:42:46;12.20;99.90
14099;DHT22;7126;48.458;7.930;2022-12-24T15:47:52;12.20;99.90
14099;DHT22;7126;48.458;7.930;2022-12-24T15:52:47;12.10;99.90
14099;DHT22;7126;48.458;7.930;2022-12-24T15:57:52;12.10;99.90
14099;DHT22;7126;48.458;7.930;2022-12-24T16:00:24;12.10;99.90
14099;DHT22;7126;48.458;7.930;2022-12-24T16:02:52;12.10;99.90
14099;DHT22;7126;48.458;7.930;2022-12-24T16:08:00;12.10;99.90
14099;DHT22;7126;48.458;7.930;2022-12-24T16:10:33;12.10;99.90
14099;DHT22;7126;48.458;7.930;2022-12-24T16:12:59;12.20;99.90
14099;DHT22;7126;48.458;7.930;2022-12-24T16:15:25;12.20;99.90
14099;DHT22;7126;48.458;7.930;2022-12-24T16:17:51;12.20;99.90
14099;DHT22;7126;48.458;7.930;2022-12-24T16:20:20;12.20;99.90
14099;DHT22;7126;48.458;7.930;2022-12-24T16:22:48;12.20;99.90
14099;DHT22;7126;48.458;7.930;2022-12-24T16:27:42;12.20;99.90
14099;DHT22;7126;48.458;7.930;2022-12-24T16:30:10;12.20;99.90
14099;DHT22;7126;48.458;7.930;2022-12-24T16:32:37;12.20;99.90
14099;DHT22;7126;48.458;7.930;2022-12-24T16:35:06;12.20;99.90
14099;DHT22;7126;48.458;7.930;2022-12-24T16:37:32;12.20;99.90
14099;DHT22;7126;48.458;7.930;2022-12-24T16:39:59;12.20;99.90
14099;DHT22;7126;48.458;7.930;2022-12-24T16:42:25;12.10;99.90
14099;DHT22;7126;48.458;7.930;2022-12-24T16:45:09;12.10;99.90
14099;DHT22;7126;48.458;7.930;2022-12-24T16:47:36;12.00;99.90
14099;DHT22;7126;48.458;7.930;2022-12-24T16:50:06;12.00;99.90
14099;DHT22;7126;48.458;7.930;2022-12-24T16:52:32;12.00;99.90
14099;DHT22;7126;48.458;7.930;2022-12-24T16:54:59;12.00;99.90
14099;DHT22;7126;48.458;7.930;2022-12-24T16:57:25;12.00;99.90
14099;DHT22;7126;48.458;7.930;2022-12-24T16:59:51;12.00;99.90
14099;DHT22;7126;48.458;7.930;2022-12-24T17:02:20;12.00;99.90
14099;DHT22;7126;48.458;7.930;2022-12-24T17:04:46;12.00;99.90
14099;DHT22;7126;48.458;7.930;2022-12-24T17:07:16;12.00;99.90
14099;DHT22;7126;48.458;7.930;2022-12-24T17:09:42;12.00;99.90
14099;DHT22;7126;48.458;7.930;2022-12-24T17:12:08;12.00;99.90
14099;DHT22;7126;48.458;7.930;2022-12-24T17:14:34;12.00;99.90
14099;DHT22;7126;48.458;7.930;2022-12-24T17:17:00;12.00;99.90
14099;DHT22;7126;48.458;7.930;2022-12-24T17:19:25;12.00;99.90
14099;DHT22;7126;48.458;7.930;2022-12-24T17:21:51;12.00;99.90
14099;DHT22;7126;48.458;7.930;2022-12-24T17:24:17;12.00;99.90
14099;DHT22;7126;48.458;7.930;2022-12-24T17:26:42;12.00;99.90
14099;DHT22;7126;48.458;7.930;2022-12-24T17:29:08;12.00;99.90
14099;DHT22;7126;48.458;7.930;2022-12-24T17:31:35;11.90;99.90
14099;DHT22;7126;48.458;7.930;2022-12-24T17:34:03;11.90;99.90
14099;DHT22;7126;48.458;7.930;2022-12-24T17:36:29;11.90;99.90
14099;DHT22;7126;48.458;7.930;2022-12-24T17:38:55;11.90;99.90
14099;DHT22;7126;48.458;7.930;2022-12-24T17:41:21;12.00;99.90
14099;DHT22;7126;48.458;7.930;2022-12-24T17:43:46;12.00;99.90